Time,TemperatureF,DewpointF,PressureIn,WindDirection,WindDirectionDegrees,WindSpeedMPH,WindSpeedGustMPH,Humidity,HourlyPrecipIn,Conditions,Clouds,dailyrainin,SoftwareType,DateUTC
2013-04-25 00:05:00,42.1,33.7,29.96,West,270,4.7,-999.0,72,-99.99,,,0.00,Acu-Link.com,2013-04-25 04:05:00,
2013-04-25 00:22:00,42.1,33.4,29.97,SW,225,1.7,-999.0,71,-99.99,,,0.00,Acu-Link.com,2013-04-25 04:22:00,
2013-04-25 00:37:00,41.2,33.9,29.98,SSW,202,1.7,-999.0,75,-99.99,,,0.00,Acu-Link.com,2013-04-25 04:37:00,
2013-04-25 00:53:00,40.5,33.2,29.99,South,180,1.1,-999.0,75,-99.99,,,0.00,Acu-Link.com,2013-04-25 04:53:00,
2013-04-25 01:10:00,40.3,32.0,30.01,WSW,247,2.7,-999.0,72,-99.99,,,0.00,Acu-Link.com,2013-04-25 05:10:00,
2013-04-25 01:26:00,39.9,32.3,30.00,SW,225,3.2,-999.0,74,-99.99,,,0.00,Acu-Link.com,2013-04-25 05:26:00,
2013-04-25 01:44:00,39.9,32.3,30.00,West,270,2.7,-999.0,74,-99.99,,,0.00,Acu-Link.com,2013-04-25 05:44:00,
2013-04-25 01:59:00,39.4,31.5,30.00,NNW,337,2.2,-999.0,73,-99.99,,,0.00,Acu-Link.com,2013-04-25 05:59:00,
2013-04-25 02:14:00,39.0,31.8,30.01,WSW,247,1.1,-999.0,75,-99.99,,,0.00,Acu-Link.com,2013-04-25 06:14:00,
2013-04-25 02:30:00,38.8,31.2,30.01,West,270,1.7,-999.0,74,-99.99,,,0.00,Acu-Link.com,2013-04-25 06:30:00,
2013-04-25 02:46:00,39.0,31.4,30.02,WSW,247,2.2,-999.0,74,-99.99,,,0.00,Acu-Link.com,2013-04-25 06:46:00,
2013-04-25 03:03:00,39.4,31.5,30.03,ENE,67,1.7,-999.0,73,-99.99,,,0.00,Acu-Link.com,2013-04-25 07:03:00,
2013-04-25 03:18:00,39.4,31.1,30.02,SSW,202,1.7,-999.0,72,-99.99,,,0.00,Acu-Link.com,2013-04-25 07:18:00,
2013-04-25 03:35:00,39.4,31.5,30.04,West,270,1.1,-999.0,73,-99.99,,,0.00,Acu-Link.com,2013-04-25 07:35:00,
2013-04-25 03:50:00,39.6,31.7,30.04,West,270,1.1,-999.0,73,-99.99,,,0.00,Acu-Link.com,2013-04-25 07:50:00,
2013-04-25 04:05:00,39.6,31.7,30.05,West,270,0.0,-999.0,73,-99.99,,,0.00,Acu-Link.com,2013-04-25 08:05:00,
2013-04-25 04:20:00,39.6,31.7,30.05,West,270,1.7,-999.0,73,-99.99,,,0.00,Acu-Link.com,2013-04-25 08:20:00,
2013-04-25 04:35:00,39.4,31.1,30.06,West,270,2.7,-999.0,72,-99.99,,,0.00,Acu-Link.com,2013-04-25 08:35:00,
2013-04-25 04:50:00,39.0,30.4,30.07,NW,315,2.7,-999.0,71,-99.99,,,0.00,Acu-Link.com,2013-04-25 08:50:00,
2013-04-25 05:05:00,39.0,30.4,30.08,West,270,3.2,-999.0,71,-99.99,,,0.00,Acu-Link.com,2013-04-25 09:05:00,
2013-04-25 05:20:00,38.7,30.1,30.08,West,270,0.0,-999.0,71,-99.99,,,0.00,Acu-Link.com,2013-04-25 09:20:00,
2013-04-25 05:36:00,37.0,29.2,30.09,SW,225,2.7,-999.0,73,-99.99,,,0.00,Acu-Link.com,2013-04-25 09:36:00,
2013-04-25 05:51:00,37.0,28.8,30.10,West,270,2.7,-999.0,72,-99.99,,,0.00,Acu-Link.com,2013-04-25 09:51:00,
2013-04-25 06:06:00,37.0,29.5,30.10,SW,225,1.7,-999.0,74,-99.99,,,0.00,Acu-Link.com,2013-04-25 10:06:00,
2013-04-25 06:21:00,37.0,28.8,30.10,West,270,1.7,-999.0,72,-99.99,,,0.00,Acu-Link.com,2013-04-25 10:21:00,
2013-04-25 06:37:00,37.4,28.9,30.11,NW,315,1.1,-999.0,71,-99.99,,,0.00,Acu-Link.com,2013-04-25 10:37:00,
2013-04-25 06:52:00,37.0,28.8,30.13,West,270,1.1,-999.0,72,-99.99,,,0.00,Acu-Link.com,2013-04-25 10:52:00,
2013-04-25 07:07:00,37.0,29.2,30.13,West,270,1.7,-999.0,73,-99.99,,,0.00,Acu-Link.com,2013-04-25 11:07:00,
2013-04-25 07:22:00,36.7,29.2,30.14,West,270,1.1,-999.0,74,-99.99,,,0.00,Acu-Link.com,2013-04-25 11:22:00,
2013-04-25 07:37:00,36.9,29.7,30.14,WSW,247,2.2,-999.0,75,-99.99,,,0.00,Acu-Link.com,2013-04-25 11:37:00,
2013-04-25 07:53:00,38.3,29.7,30.14,SSW,202,1.7,-999.0,71,-99.99,,,0.00,Acu-Link.com,2013-04-25 11:53:00,
2013-04-25 08:08:00,39.6,30.6,30.14,SE,135,2.2,-999.0,70,-99.99,,,0.00,Acu-Link.com,2013-04-25 12:08:00,
2013-04-25 08:23:00,41.2,31.5,30.14,West,270,1.7,-999.0,68,-99.99,,,0.00,Acu-Link.com,2013-04-25 12:23:00,
2013-04-25 08:38:00,42.8,30.3,30.14,West,270,2.2,-999.0,61,-99.99,,,0.00,Acu-Link.com,2013-04-25 12:38:00,
2013-04-25 08:53:00,45.9,32.0,30.15,WSW,247,2.2,-999.0,58,-99.99,,,0.00,Acu-Link.com,2013-04-25 12:53:00,
2013-04-25 09:09:00,49.5,31.1,30.15,SSW,202,0.0,-999.0,49,-99.99,,,0.00,Acu-Link.com,2013-04-25 13:09:00,
2013-04-25 09:24:00,53.4,32.6,30.14,WSW,247,2.2,-999.0,45,-99.99,,,0.00,Acu-Link.com,2013-04-25 13:24:00,
2013-04-25 09:39:00,53.1,31.8,30.15,SSW,202,1.1,-999.0,44,-99.99,,,0.00,Acu-Link.com,2013-04-25 13:39:00,
2013-04-25 09:54:00,57.6,34.7,30.14,West,270,1.1,-999.0,42,-99.99,,,0.00,Acu-Link.com,2013-04-25 13:54:00,
2013-04-25 10:09:00,49.8,29.3,30.15,SSW,202,2.7,-999.0,45,-99.99,,,0.00,Acu-Link.com,2013-04-25 14:09:00,
2013-04-25 10:25:00,50.0,30.0,30.15,SW,225,2.7,-999.0,46,-99.99,,,0.00,Acu-Link.com,2013-04-25 14:25:00,
2013-04-25 10:40:00,51.3,30.7,30.15,East,90,3.7,-999.0,45,-99.99,,,0.00,Acu-Link.com,2013-04-25 14:40:00,
2013-04-25 10:55:00,53.1,31.2,30.14,SW,225,1.7,-999.0,43,-99.99,,,0.00,Acu-Link.com,2013-04-25 14:55:00,
2013-04-25 11:10:00,51.8,31.1,30.15,East,90,4.2,-999.0,45,-99.99,,,0.00,Acu-Link.com,2013-04-25 15:10:00,
2013-04-25 11:25:00,55.8,34.2,30.14,West,270,1.7,-999.0,44,-99.99,,,0.00,Acu-Link.com,2013-04-25 15:25:00,
2013-04-25 11:41:00,55.4,31.5,30.14,SSW,202,2.2,-999.0,40,-99.99,,,0.00,Acu-Link.com,2013-04-25 15:41:00,
2013-04-25 11:56:00,56.5,32.5,30.13,SW,225,4.2,-999.0,40,-99.99,,,0.00,Acu-Link.com,2013-04-25 15:56:00,
2013-04-25 12:11:00,54.1,31.5,30.13,East,90,4.2,-999.0,42,-99.99,,,0.00,Acu-Link.com,2013-04-25 16:11:00,
2013-04-25 12:26:00,55.0,32.9,30.13,ESE,112,7.3,-999.0,43,-99.99,,,0.00,Acu-Link.com,2013-04-25 16:26:00,
2013-04-25 12:42:00,54.9,31.0,30.12,East,90,4.2,-999.0,40,-99.99,,,0.00,Acu-Link.com,2013-04-25 16:42:00,
2013-04-25 12:57:00,55.9,31.9,30.12,ESE,112,4.7,-999.0,40,-99.99,,,0.00,Acu-Link.com,2013-04-25 16:57:00,
2013-04-25 13:13:00,56.3,31.7,30.12,ENE,67,4.2,-999.0,39,-99.99,,,0.00,Acu-Link.com,2013-04-25 17:13:00,
2013-04-25 13:28:00,58.5,32.3,30.12,WSW,247,3.7,-999.0,37,-99.99,,,0.00,Acu-Link.com,2013-04-25 17:28:00,
2013-04-25 13:44:00,57.6,30.2,30.11,East,90,3.2,-999.0,35,-99.99,,,0.00,Acu-Link.com,2013-04-25 17:44:00,
2013-04-25 13:59:00,57.9,31.8,30.10,ESE,112,5.8,-999.0,37,-99.99,,,0.00,Acu-Link.com,2013-04-25 17:59:00,
2013-04-25 14:14:00,58.5,30.2,30.10,SE,135,3.7,-999.0,34,-99.99,,,0.00,Acu-Link.com,2013-04-25 18:14:00,
2013-04-25 14:29:00,57.9,31.8,30.09,East,90,4.7,-999.0,37,-99.99,,,0.00,Acu-Link.com,2013-04-25 18:29:00,
2013-04-25 14:44:00,59.2,32.3,30.08,ENE,67,4.2,-999.0,36,-99.99,,,0.00,Acu-Link.com,2013-04-25 18:44:00,
2013-04-25 15:00:00,59.0,30.7,30.07,ESE,112,2.7,-999.0,34,-99.99,,,0.00,Acu-Link.com,2013-04-25 19:00:00,
2013-04-25 15:15:00,58.8,31.2,30.05,ESE,112,4.2,-999.0,35,-99.99,,,0.00,Acu-Link.com,2013-04-25 19:15:00,
2013-04-25 15:33:00,61.2,31.9,30.04,NNE,22,5.8,-999.0,33,-99.99,,,0.00,Acu-Link.com,2013-04-25 19:33:00,
2013-04-25 15:48:00,61.2,31.9,30.04,WNW,292,3.2,-999.0,33,-99.99,,,0.00,Acu-Link.com,2013-04-25 19:48:00,
2013-04-25 16:04:00,60.6,30.6,30.04,NW,315,5.3,-999.0,32,-99.99,,,0.00,Acu-Link.com,2013-04-25 20:04:00,
2013-04-25 16:20:00,60.3,31.1,30.04,North,0,5.8,-999.0,33,-99.99,,,0.00,Acu-Link.com,2013-04-25 20:20:00,
2013-04-25 16:35:00,60.3,31.1,30.04,ESE,112,3.2,-999.0,33,-99.99,,,0.00,Acu-Link.com,2013-04-25 20:35:00,
2013-04-25 16:51:00,60.3,30.3,30.05,East,90,3.7,-999.0,32,-99.99,,,0.00,Acu-Link.com,2013-04-25 20:51:00,
2013-04-25 17:06:00,59.0,29.2,30.05,West,270,2.7,-999.0,32,-99.99,,,0.00,Acu-Link.com,2013-04-25 21:06:00,
2013-04-25 17:21:00,59.5,31.1,30.05,SW,225,2.7,-999.0,34,-99.99,,,0.00,Acu-Link.com,2013-04-25 21:21:00,
2013-04-25 17:36:00,60.1,29.4,30.05,West,270,2.2,-999.0,31,-99.99,,,0.00,Acu-Link.com,2013-04-25 21:36:00,
2013-04-25 17:52:00,59.7,29.0,30.05,East,90,0.0,-999.0,31,-99.99,,,0.00,Acu-Link.com,2013-04-25 21:52:00,
2013-04-25 18:07:00,59.7,29.0,30.05,NE,45,1.1,-999.0,31,-99.99,,,0.00,Acu-Link.com,2013-04-25 22:07:00,
2013-04-25 18:22:00,60.4,28.8,30.06,SSW,202,3.2,-999.0,30,-99.99,,,0.00,Acu-Link.com,2013-04-25 22:22:00,
2013-04-25 18:37:00,59.0,27.6,30.06,WNW,292,1.7,-999.0,30,-99.99,,,0.00,Acu-Link.com,2013-04-25 22:37:00,
2013-04-25 18:52:00,58.3,27.0,30.07,West,270,0.0,-999.0,30,-99.99,,,0.00,Acu-Link.com,2013-04-25 22:52:00,
2013-04-25 19:08:00,57.0,25.9,30.06,NE,45,2.2,-999.0,30,-99.99,,,0.00,Acu-Link.com,2013-04-25 23:08:00,
2013-04-25 19:23:00,56.7,27.2,30.07,SSW,202,1.1,-999.0,32,-99.99,,,0.00,Acu-Link.com,2013-04-25 23:23:00,
2013-04-25 19:38:00,55.8,28.6,30.08,West,270,1.1,-999.0,35,-99.99,,,0.00,Acu-Link.com,2013-04-25 23:38:00,
2013-04-25 19:53:00,54.7,30.2,30.09,West,270,0.0,-999.0,39,-99.99,,,0.00,Acu-Link.com,2013-04-25 23:53:00,
2013-04-25 20:08:00,53.6,25.2,30.10,West,270,2.7,-999.0,33,-99.99,,,0.00,Acu-Link.com,2013-04-26 00:08:00,
2013-04-25 20:24:00,53.4,25.7,30.10,WSW,247,2.7,-999.0,34,-99.99,,,0.00,Acu-Link.com,2013-04-26 00:24:00,
2013-04-25 20:39:00,52.9,25.3,30.12,WSW,247,1.7,-999.0,34,-99.99,,,0.00,Acu-Link.com,2013-04-26 00:39:00,
2013-04-25 20:54:00,53.2,25.6,30.13,SW,225,2.2,-999.0,34,-99.99,,,0.00,Acu-Link.com,2013-04-26 00:54:00,
2013-04-25 21:10:00,52.3,26.2,30.13,West,270,2.2,-999.0,36,-99.99,,,0.00,Acu-Link.com,2013-04-26 01:10:00,
2013-04-25 21:25:00,51.6,28.1,30.14,WSW,247,1.1,-999.0,40,-99.99,,,0.00,Acu-Link.com,2013-04-26 01:25:00,
2013-04-25 21:40:00,51.1,28.2,30.15,West,270,1.1,-999.0,41,-99.99,,,0.00,Acu-Link.com,2013-04-26 01:40:00,
2013-04-25 21:55:00,50.5,28.3,30.15,West,270,1.1,-999.0,42,-99.99,,,0.00,Acu-Link.com,2013-04-26 01:55:00,
2013-04-25 22:12:00,48.9,29.0,30.16,West,270,1.1,-999.0,46,-99.99,,,0.00,Acu-Link.com,2013-04-26 02:12:00,
2013-04-25 22:29:00,48.0,27.7,30.16,NW,315,2.7,-999.0,45,-99.99,,,0.00,Acu-Link.com,2013-04-26 02:29:00,
2013-04-25 22:44:00,48.6,27.7,30.17,SW,225,2.2,-999.0,44,-99.99,,,0.00,Acu-Link.com,2013-04-26 02:44:00,
2013-04-25 22:59:00,50.0,30.0,30.17,SW,225,3.2,-999.0,46,-99.99,,,0.00,Acu-Link.com,2013-04-26 02:59:00,
2013-04-25 23:16:00,49.6,30.7,30.18,WSW,247,1.7,-999.0,48,-99.99,,,0.00,Acu-Link.com,2013-04-26 03:16:00,
2013-04-25 23:32:00,48.9,31.1,30.19,WNW,292,1.1,-999.0,50,-99.99,,,0.00,Acu-Link.com,2013-04-26 03:32:00,
2013-04-25 23:47:00,48.4,31.6,30.20,WNW,292,2.2,-999.0,52,-99.99,,,0.00,Acu-Link.com,2013-04-26 03:47:00,